Time;durP1;ratioP1;P1;durP2;ratioP2;P2;SDS_P1;SDS_P2;PMS_P1;PMS_P2;Temp;Humidity;BMP_temperature;BMP_pressure;BME280_temperature;BME280_humidity;BME280_pressure;Samples;Min_cycle;Max_cycle;Signal;HPM_P1;HPM_P2
2023/12/05 00:00:34;;;;;;;24.60;11.88;;;0.30;99.90;;;;;;5035427;28;20041;-72
2023/12/05 00:03:00;;;;;;;21.50;12.02;;;0.30;99.90;;;;;;5030714;28;20044;-71
2023/12/05 00:05:25;;;;;;;24.83;12.85;;;0.30;99.90;;;;;;5045837;28;20029;-72
2023/12/05 00:07:51;;;;;;;22.05;11.85;;;0.30;99.90;;;;;;5043808;28;20120;-72
2023/12/05 00:10:17;;;;;;;23.45;12.95;;;0.30;99.90;;;;;;5029472;28;20103;-71
2023/12/05 00:12:42;;;;;;;22.88;12.35;;;0.30;99.90;;;;;;5021877;28;20060;-72
2023/12/05 00:15:08;;;;;;;26.23;12.60;;;0.30;99.90;;;;;;5022066;28;20073;-71
2023/12/05 00:17:34;;;;;;;23.27;12.15;;;0.30;99.90;;;;;;5032157;28;20045;-73
2023/12/05 00:20:00;;;;;;;26.63;13.75;;;0.30;99.90;;;;;;5018369;28;20041;-71
2023/12/05 00:22:29;;;;;;;21.35;12.60;;;0.20;99.90;;;;;;5030323;28;20488;-71
2023/12/05 00:24:54;;;;;;;23.08;12.25;;;0.30;99.90;;;;;;5044167;28;20043;-71
2023/12/05 00:27:20;;;;;;;23.48;13.35;;;0.30;99.90;;;;;;5039528;28;20037;-72
2023/12/05 00:29:50;;;;;;;26.05;13.10;;;0.30;99.90;;;;;;5032196;28;20177;-73
2023/12/05 00:32:15;;;;;;;24.43;13.27;;;0.30;99.90;;;;;;5032994;28;20098;-72
2023/12/05 00:34:45;;;;;;;25.73;13.40;;;0.30;99.90;;;;;;5040572;28;20362;-71
2023/12/05 00:37:11;;;;;;;24.80;12.88;;;0.30;99.90;;;;;;5036562;28;20084;-70
2023/12/05 00:39:37;;;;;;;26.50;13.98;;;0.30;99.90;;;;;;5030564;28;20148;-71
2023/12/05 00:42:02;;;;;;;27.33;14.30;;;0.30;99.90;;;;;;5038610;28;20052;-72
2023/12/05 00:44:28;;;;;;;26.95;14.70;;;0.30;99.90;;;;;;5032803;28;20084;-71
2023/12/05 00:46:54;;;;;;;27.20;14.10;;;0.30;99.90;;;;;;5021084;28;20037;-71
2023/12/05 00:49:19;;;;;;;32.13;17.35;;;0.30;99.90;;;;;;5041786;28;20614;-72
2023/12/05 00:51:45;;;;;;;30.80;16.00;;;0.30;99.90;;;;;;5046901;28;20048;-70
2023/12/05 00:54:10;;;;;;;29.02;15.73;;;0.30;99.90;;;;;;5029936;28;20047;-71
2023/12/05 00:56:36;;;;;;;23.17;12.63;;;0.30;99.90;;;;;;5012899;28;20034;-70
2023/12/05 00:59:02;;;;;;;31.90;15.75;;;0.30;99.90;;;;;;5028350;28;20123;-70
2023/12/05 01:01:28;;;;;;;30.55;15.20;;;0.30;99.90;;;;;;5036215;28;20040;-70
2023/12/05 01:03:56;;;;;;;24.15;14.05;;;0.30;99.90;;;;;;5037563;28;20174;-69
2023/12/05 01:06:22;;;;;;;32.13;16.38;;;0.30;99.90;;;;;;5033910;28;20033;-70
2023/12/05 01:08:48;;;;;;;31.42;16.35;;;0.30;99.90;;;;;;5035794;28;20072;-70
2023/12/05 01:11:14;;;;;;;32.40;16.27;;;0.30;99.90;;;;;;5028687;28;20069;-70
2023/12/05 01:13:40;;;;;;;32.65;17.10;;;0.30;99.90;;;;;;5029341;28;20438;-70
2023/12/05 01:16:06;;;;;;;33.58;16.52;;;0.20;99.90;;;;;;5029319;28;20064;-71
2023/12/05 01:18:31;;;;;;;29.25;15.48;;;0.20;99.90;;;;;;5032809;28;20441;-69
2023/12/05 01:20:57;;;;;;;27.13;13.75;;;0.30;99.90;;;;;;5042782;28;20033;-70
2023/12/05 01:23:23;;;;;;;34.03;15.85;;;0.30;99.90;;;;;;5039384;28;20039;-70
2023/12/05 01:25:48;;;;;;;30.77;16.38;;;0.30;99.90;;;;;;5031127;28;20038;-72
2023/12/05 01:28:14;;;;;;;33.00;17.33;;;0.30;99.90;;;;;;5028963;28;20040;-70
2023/12/05 01:30:41;;;;;;;29.30;15.43;;;0.30;99.90;;;;;;5029821;28;20045;-70
2023/12/05 01:33:07;;;;;;;32.67;15.65;;;0.20;99.90;;;;;;5034338;28;20064;-69
2023/12/05 01:35:33;;;;;;;32.00;16.23;;;0.30;99.90;;;;;;5028237;28;20099;-70
2023/12/05 01:37:58;;;;;;;31.55;17.05;;;0.20;99.90;;;;;;5033090;28;20140;-70
2023/12/05 01:40:24;;;;;;;32.45;15.70;;;0.20;99.90;;;;;;5011509;28;20042;-71
2023/12/05 01:42:49;;;;;;;30.20;14.98;;;0.20;99.90;;;;;;5028737;28;20049;-72
2023/12/05 01:45:15;;;;;;;27.83;15.23;;;0.30;99.90;;;;;;5024983;28;20068;-74
2023/12/05 01:47:41;;;;;;;29.50;15.75;;;0.20;99.90;;;;;;5028554;28;20038;-74
2023/12/05 01:50:10;;;;;;;36.15;17.02;;;0.20;99.90;;;;;;5032719;28;20516;-75
2023/12/05 01:52:39;;;;;;;37.88;17.55;;;0.20;99.90;;;;;;5012534;28;20056;-77
2023/12/05 01:55:08;;;;;;;36.00;17.73;;;0.20;99.90;;;;;;5013849;28;20128;-76
2023/12/05 01:57:35;;;;;;;34.97;17.05;;;0.20;99.90;;;;;;5028499;28;20086;-79
2023/12/05 02:00:01;;;;;;;34.35;16.73;;;0.20;99.90;;;;;;5028303;28;20053;-76
2023/12/05 02:02:27;;;;;;;39.58;18.02;;;0.20;99.90;;;;;;5027394;28;20433;-75
2023/12/05 02:04:52;;;;;;;36.35;18.23;;;0.20;99.90;;;;;;5033224;28;20057;-78
2023/12/05 02:07:18;;;;;;;39.25;18.00;;;0.20;99.90;;;;;;5028699;28;20183;-74
2023/12/05 02:09:44;;;;;;;33.67;16.25;;;0.10;99.90;;;;;;5027933;28;20426;-76
2023/12/05 02:12:10;;;;;;;38.38;18.50;;;0.10;99.90;;;;;;5024684;28;20051;-78
2023/12/05 02:14:36;;;;;;;33.10;17.73;;;0.10;99.90;;;;;;5026719;28;20127;-76
2023/12/05 02:17:14;;;;;;;37.88;17.35;;;0.10;99.90;;;;;;5045673;28;20088;-74
2023/12/05 02:20:01;;;;;;;37.30;16.80;;;0.10;99.90;;;;;;5025086;28;20073;-73
2023/12/05 02:23:00;;;;;;;36.35;18.38;;;0.10;99.90;;;;;;5029764;28;20385;-72
2023/12/05 02:26:01;;;;;;;32.83;16.33;;;0.10;99.90;;;;;;5037750;28;20144;-74
2023/12/05 02:28:27;;;;;;;39.65;18.60;;;0.10;99.90;;;;;;5014271;28;20051;-74
2023/12/05 02:30:53;;;;;;;36.92;18.10;;;0.10;99.90;;;;;;5024418;28;20331;-72
2023/12/05 02:33:19;;;;;;;41.97;16.70;;;0.10;99.90;;;;;;5026914;28;20037;-72
2023/12/05 02:35:46;;;;;;;39.28;17.63;;;0.10;99.90;;;;;;5035529;28;20080;-73
2023/12/05 02:38:18;;;;;;;40.33;18.20;;;0.10;99.90;;;;;;5028402;28;20051;-73
2023/12/05 02:41:01;;;;;;;38.88;18.30;;;0.10;99.90;;;;;;5040000;28;20501;-73
2023/12/05 02:43:37;;;;;;;41.30;18.60;;;0.10;99.90;;;;;;5047641;28;20112;-76
2023/12/05 02:46:04;;;;;;;38.05;17.80;;;0.10;99.90;;;;;;5019449;28;20041;-72
2023/12/05 02:48:30;;;;;;;42.20;19.08;;;0.10;99.90;;;;;;5031869;28;20041;-74
2023/12/05 02:50:56;;;;;;;32.50;14.90;;;0.10;99.90;;;;;;5023439;28;20466;-71
2023/12/05 02:53:22;;;;;;;43.50;18.77;;;0.10;99.90;;;;;;5036140;28;20080;-72
2023/12/05 02:55:48;;;;;;;39.83;18.40;;;0.10;99.90;;;;;;5031614;28;20141;-73
2023/12/05 02:58:14;;;;;;;41.35;20.42;;;0.10;99.90;;;;;;5026907;28;20186;-75
2023/12/05 03:00:40;;;;;;;41.88;18.48;;;0.10;99.90;;;;;;5026356;28;20037;-73
2023/12/05 03:03:06;;;;;;;42.08;18.67;;;0.10;99.90;;;;;;5029864;28;20103;-73
2023/12/05 03:05:32;;;;;;;43.70;19.55;;;0.10;99.90;;;;;;5033824;28;20032;-72
2023/12/05 03:07:57;;;;;;;45.05;19.38;;;0.10;99.90;;;;;;5036060;28;20046;-74
2023/12/05 03:10:23;;;;;;;37.55;16.80;;;0.10;99.90;;;;;;5029474;28;20033;-73
2023/12/05 03:12:48;;;;;;;37.25;17.70;;;0.10;99.90;;;;;;5028411;28;20079;-73
2023/12/05 03:15:14;;;;;;;36.97;18.15;;;0.10;99.90;;;;;;5021545;28;20040;-73
2023/12/05 03:17:40;;;;;;;42.00;19.90;;;0.10;99.90;;;;;;5030333;28;20037;-74
2023/12/05 03:20:07;;;;;;;42.47;18.92;;;0.10;99.90;;;;;;5017188;28;20117;-74
2023/12/05 03:22:32;;;;;;;33.88;16.50;;;0.10;99.90;;;;;;5026926;28;20041;-74
2023/12/05 03:24:58;;;;;;;34.92;16.63;;;0.10;99.90;;;;;;5019740;28;20037;-75
2023/12/05 03:27:24;;;;;;;38.15;18.17;;;0.10;99.90;;;;;;5019440;28;20132;-75
2023/12/05 03:29:49;;;;;;;40.78;17.80;;;0.10;99.90;;;;;;5029851;28;20607;-73
2023/12/05 03:32:15;;;;;;;38.95;17.95;;;0.10;99.90;;;;;;5046150;28;20044;-76
2023/12/05 03:34:41;;;;;;;41.50;20.00;;;0.10;99.90;;;;;;5014304;28;20041;-72
2023/12/05 03:37:06;;;;;;;40.78;18.50;;;0.10;99.90;;;;;;5046484;28;20454;-74
2023/12/05 03:39:32;;;;;;;33.85;17.88;;;0.10;99.90;;;;;;5047561;28;20105;-72
2023/12/05 03:41:58;;;;;;;37.25;17.73;;;0.10;99.90;;;;;;5014319;28;20037;-74
2023/12/05 03:44:23;;;;;;;32.83;16.70;;;0.10;99.90;;;;;;5038224;28;20047;-74
2023/12/05 03:46:49;;;;;;;41.38;18.83;;;0.10;99.90;;;;;;5030777;28;20457;-73
2023/12/05 03:49:15;;;;;;;41.33;19.83;;;0.10;99.90;;;;;;5013088;28;20099;-74
2023/12/05 03:51:40;;;;;;;38.03;17.50;;;0.10;99.90;;;;;;5034345;28;20103;-75
2023/12/05 03:54:07;;;;;;;38.17;18.17;;;0.10;99.90;;;;;;5028743;28;20166;-75
2023/12/05 03:56:33;;;;;;;41.70;19.17;;;0.10;99.90;;;;;;5030527;28;20098;-75
2023/12/05 03:58:59;;;;;;;38.38;18.02;;;0.10;99.90;;;;;;5026314;28;20123;-72
2023/12/05 04:01:24;;;;;;;42.10;19.15;;;0.10;99.90;;;;;;5037307;28;20416;-72
2023/12/05 04:03:50;;;;;;;41.10;19.77;;;0.10;99.90;;;;;;5028760;28;20069;-76
2023/12/05 04:06:23;;;;;;;35.15;16.70;;;0.10;99.90;;;;;;5038269;28;20083;-74
2023/12/05 04:08:49;;;;;;;46.80;20.45;;;0.10;99.90;;;;;;5025703;28;20069;-74
2023/12/05 04:11:15;;;;;;;47.10;19.48;;;0.10;99.90;;;;;;5029472;28;20052;-73
2023/12/05 04:13:41;;;;;;;45.08;19.23;;;0.10;99.90;;;;;;5035189;28;20726;-73
2023/12/05 04:16:07;;;;;;;43.83;19.95;;;0.10;99.90;;;;;;5034546;28;20043;-73
2023/12/05 04:18:32;;;;;;;47.35;19.88;;;0.10;99.90;;;;;;5028788;28;20044;-73
2023/12/05 04:20:58;;;;;;;47.47;20.77;;;0.10;99.90;;;;;;5012988;28;20042;-73
2023/12/05 04:23:24;;;;;;;52.28;21.52;;;0.10;99.90;;;;;;5029861;28;20049;-73
2023/12/05 04:25:49;;;;;;;49.97;20.92;;;0.10;99.90;;;;;;5040177;28;20041;-72
2023/12/05 04:28:15;;;;;;;47.65;21.10;;;0.10;99.90;;;;;;5034008;28;20634;-72
2023/12/05 04:30:41;;;;;;;45.33;20.23;;;0.10;99.90;;;;;;5030623;28;20053;-71
2023/12/05 04:33:06;;;;;;;53.83;21.58;;;0.10;99.90;;;;;;5017943;28;20453;-73
2023/12/05 04:35:32;;;;;;;48.70;20.75;;;0.10;99.90;;;;;;5048706;28;20531;-72
2023/12/05 04:37:57;;;;;;;50.17;21.30;;;0.10;99.90;;;;;;5049927;28;20041;-72
2023/12/05 04:40:23;;;;;;;47.10;20.05;;;0.10;99.90;;;;;;5038166;28;20037;-72
2023/12/05 04:42:49;;;;;;;46.00;20.75;;;0.10;99.90;;;;;;5018472;28;20164;-73
2023/12/05 04:45:15;;;;;;;46.53;19.73;;;0.10;99.90;;;;;;5030214;28;20037;-74
2023/12/05 04:47:41;;;;;;;46.03;20.45;;;0.10;99.90;;;;;;5046692;28;20045;-72
2023/12/05 04:50:08;;;;;;;44.88;19.77;;;0.10;99.90;;;;;;5036124;28;20043;-73
2023/12/05 04:52:34;;;;;;;42.33;18.95;;;0.10;99.90;;;;;;5048705;28;20052;-72
2023/12/05 04:55:00;;;;;;;47.08;19.92;;;0.10;99.90;;;;;;5024488;28;20034;-73
2023/12/05 04:57:26;;;;;;;42.35;19.00;;;0.10;99.90;;;;;;5012910;28;20738;-72
2023/12/05 04:59:51;;;;;;;50.13;21.15;;;0.10;99.90;;;;;;5024490;28;20128;-72
2023/12/05 05:02:17;;;;;;;46.72;19.90;;;0.20;99.90;;;;;;5044741;28;20048;-73
2023/12/05 05:04:42;;;;;;;47.70;21.20;;;0.20;99.90;;;;;;5020658;28;20523;-73
2023/12/05 05:07:08;;;;;;;46.58;21.95;;;0.20;99.90;;;;;;5028905;28;20041;-72
2023/12/05 05:09:35;;;;;;;48.13;20.42;;;0.10;99.90;;;;;;5019708;28;20125;-71
2023/12/05 05:12:01;;;;;;;46.72;21.65;;;0.20;99.90;;;;;;5036072;28;20121;-72
2023/12/05 05:14:26;;;;;;;46.58;21.00;;;0.10;99.90;;;;;;5048986;28;20033;-71
2023/12/05 05:16:52;;;;;;;45.50;18.15;;;0.20;99.90;;;;;;5032298;28;20041;-72
2023/12/05 05:19:17;;;;;;;49.42;21.75;;;0.10;99.90;;;;;;5012818;28;20041;-73
2023/12/05 05:21:43;;;;;;;47.45;20.10;;;0.10;99.90;;;;;;5012268;28;20462;-70
2023/12/05 05:24:09;;;;;;;53.35;20.90;;;0.20;99.90;;;;;;5021587;28;20052;-72
2023/12/05 05:26:34;;;;;;;47.35;20.33;;;0.20;99.90;;;;;;5022978;28;20129;-72
2023/12/05 05:29:00;;;;;;;50.17;20.23;;;0.20;99.90;;;;;;5027083;28;20092;-73
2023/12/05 05:31:25;;;;;;;47.63;19.17;;;0.20;99.90;;;;;;5025909;28;20079;-71
2023/12/05 05:33:51;;;;;;;51.40;21.05;;;0.20;99.90;;;;;;5031512;28;20093;-72
2023/12/05 05:36:17;;;;;;;45.60;18.67;;;0.20;99.90;;;;;;5031088;28;20397;-74
2023/12/05 05:38:42;;;;;;;49.25;20.20;;;0.20;99.90;;;;;;5040155;28;20587;-72
2023/12/05 05:41:10;;;;;;;48.03;19.92;;;0.10;99.90;;;;;;5029426;28;20048;-72
2023/12/05 05:43:35;;;;;;;52.95;21.05;;;0.10;99.90;;;;;;5036944;28;20098;-73
2023/12/05 05:46:01;;;;;;;51.55;21.25;;;0.20;99.90;;;;;;5035927;28;20037;-72
2023/12/05 05:48:27;;;;;;;49.83;20.35;;;0.20;99.90;;;;;;5026966;28;20216;-72
2023/12/05 05:50:52;;;;;;;48.33;20.60;;;0.20;99.90;;;;;;5030083;28;20037;-72
2023/12/05 05:53:18;;;;;;;51.08;21.33;;;0.20;99.90;;;;;;5028499;28;20063;-73
2023/12/05 05:55:43;;;;;;;46.33;20.48;;;0.20;99.90;;;;;;5024542;28;20051;-72
2023/12/05 05:58:12;;;;;;;49.90;19.40;;;0.20;99.90;;;;;;5025843;28;20050;-73
2023/12/05 06:00:38;;;;;;;45.13;19.40;;;0.20;99.90;;;;;;5028792;28;20030;-71
2023/12/05 06:03:04;;;;;;;46.70;19.23;;;0.20;99.90;;;;;;5013999;28;20059;-72
2023/12/05 06:05:30;;;;;;;49.55;20.67;;;0.20;99.90;;;;;;5027725;28;20081;-72
2023/12/05 06:07:55;;;;;;;48.30;19.45;;;0.20;99.90;;;;;;5024009;28;20068;-72
2023/12/05 06:10:22;;;;;;;46.88;19.08;;;0.20;99.90;;;;;;5022149;28;20461;-72
2023/12/05 06:12:47;;;;;;;46.10;19.58;;;0.20;99.90;;;;;;5044463;28;20111;-73
2023/12/05 06:15:13;;;;;;;46.97;21.23;;;0.20;99.90;;;;;;5031338;28;20045;-72
2023/12/05 06:17:39;;;;;;;42.15;19.42;;;0.20;99.90;;;;;;5023694;28;20145;-72
2023/12/05 06:20:05;;;;;;;46.35;19.88;;;0.20;99.90;;;;;;5027601;28;20033;-72
2023/12/05 06:22:31;;;;;;;46.70;20.58;;;0.20;99.90;;;;;;5027922;28;20508;-72
2023/12/05 06:24:57;;;;;;;43.42;18.98;;;0.20;99.90;;;;;;5027849;28;20025;-73
2023/12/05 06:27:23;;;;;;;45.58;20.60;;;0.20;99.90;;;;;;5049299;28;20422;-72
2023/12/05 06:29:48;;;;;;;47.90;19.80;;;0.20;99.90;;;;;;5030128;28;20061;-72
2023/12/05 06:32:14;;;;;;;44.30;18.88;;;0.20;99.90;;;;;;5038929;28;20479;-72
2023/12/05 06:34:39;;;;;;;42.58;18.80;;;0.20;99.90;;;;;;5032831;28;20069;-73
2023/12/05 06:37:05;;;;;;;46.20;19.23;;;0.20;99.90;;;;;;5043225;28;20111;-72
2023/12/05 06:39:31;;;;;;;47.10;19.92;;;0.20;99.90;;;;;;5033148;28;20059;-74
2023/12/05 06:41:56;;;;;;;44.95;19.92;;;0.20;99.90;;;;;;5024236;28;20065;-72
2023/12/05 06:44:22;;;;;;;39.70;18.95;;;0.20;99.90;;;;;;5039695;28;20037;-73
2023/12/05 06:46:47;;;;;;;46.92;18.80;;;0.20;99.90;;;;;;5047063;28;20032;-72
2023/12/05 06:49:13;;;;;;;44.30;18.27;;;0.20;99.90;;;;;;5036006;28;20052;-74
2023/12/05 06:51:40;;;;;;;49.00;19.48;;;0.20;99.90;;;;;;5045186;28;20041;-73
2023/12/05 06:54:05;;;;;;;48.28;19.88;;;0.20;99.90;;;;;;5043134;28;20032;-73
2023/12/05 06:56:31;;;;;;;43.72;18.65;;;0.20;99.90;;;;;;5045440;28;20079;-67
2023/12/05 06:58:58;;;;;;;47.58;20.00;;;0.20;99.90;;;;;;5027027;28;20037;-73
2023/12/05 07:01:23;;;;;;;45.95;19.42;;;0.20;99.90;;;;;;5046930;28;20041;-74
2023/12/05 07:03:49;;;;;;;45.47;18.63;;;0.20;99.90;;;;;;5043875;28;20090;-72
2023/12/05 07:06:15;;;;;;;39.83;17.05;;;0.20;99.90;;;;;;5045583;28;20029;-74
2023/12/05 07:08:40;;;;;;;47.33;19.77;;;0.20;99.90;;;;;;5030101;28;20045;-72
2023/12/05 07:11:06;;;;;;;45.10;18.63;;;0.20;99.90;;;;;;5040544;28;20044;-72
2023/12/05 07:13:32;;;;;;;42.88;19.23;;;0.20;99.90;;;;;;5029634;28;20044;-73
2023/12/05 07:15:58;;;;;;;48.95;22.10;;;0.20;99.90;;;;;;5030328;28;20753;-72
2023/12/05 07:18:23;;;;;;;46.42;19.45;;;0.20;99.90;;;;;;5045219;28;20044;-73
2023/12/05 07:20:49;;;;;;;44.63;18.88;;;0.20;99.90;;;;;;5039988;28;20071;-73
2023/12/05 07:23:15;;;;;;;42.45;18.85;;;0.20;99.90;;;;;;5040832;28;20106;-71
2023/12/05 07:25:41;;;;;;;46.85;19.77;;;0.20;99.90;;;;;;5045126;28;20095;-73
2023/12/05 07:28:06;;;;;;;46.00;19.23;;;0.20;99.90;;;;;;5045312;28;20197;-73
2023/12/05 07:30:32;;;;;;;45.65;20.85;;;0.20;99.90;;;;;;5045036;28;20045;-73
2023/12/05 07:32:57;;;;;;;48.83;19.27;;;0.20;99.90;;;;;;5018846;28;20076;-73
2023/12/05 07:35:23;;;;;;;46.70;18.85;;;0.20;99.90;;;;;;5029373;28;20508;-73
2023/12/05 07:37:49;;;;;;;35.30;14.50;;;0.20;99.90;;;;;;5046922;28;20572;-74
2023/12/05 07:40:15;;;;;;;45.92;18.20;;;0.20;99.90;;;;;;5027031;28;20044;-74
2023/12/05 07:42:41;;;;;;;45.30;18.42;;;0.20;99.90;;;;;;5025375;28;20152;-74
2023/12/05 07:45:07;;;;;;;44.95;18.08;;;0.20;99.90;;;;;;5031429;28;20120;-72
2023/12/05 07:47:34;;;;;;;35.88;16.58;;;0.20;99.90;;;;;;5038535;28;20120;-71
2023/12/05 07:49:59;;;;;;;49.40;20.10;;;0.20;99.90;;;;;;5027492;28;20438;-72
2023/12/05 07:52:25;;;;;;;45.33;18.52;;;0.20;99.90;;;;;;5019868;28;20103;-72
2023/12/05 07:54:51;;;;;;;46.47;18.67;;;0.20;99.90;;;;;;5037998;28;20518;-74
2023/12/05 07:57:22;;;;;;;45.90;18.50;;;0.20;99.90;;;;;;5041791;28;20068;-73
2023/12/05 07:59:48;;;;;;;45.00;18.30;;;0.20;99.90;;;;;;5026377;28;20033;-73
2023/12/05 08:02:14;;;;;;;55.97;19.65;;;0.20;99.90;;;;;;5036617;28;20441;-72
2023/12/05 08:04:41;;;;;;;53.42;20.55;;;0.20;99.90;;;;;;5044445;28;20060;-72
2023/12/05 08:07:08;;;;;;;45.38;19.83;;;0.20;99.90;;;;;;5024635;28;20041;-72
2023/12/05 08:09:33;;;;;;;49.33;20.45;;;0.20;99.90;;;;;;5026649;28;20029;-72
2023/12/05 08:11:59;;;;;;;43.05;19.00;;;0.20;99.90;;;;;;5012285;28;20072;-72
2023/12/05 08:14:25;;;;;;;47.75;18.45;;;0.20;99.90;;;;;;5033939;28;20115;-72
2023/12/05 08:16:51;;;;;;;49.28;20.27;;;0.20;99.90;;;;;;5021512;28;20086;-70
2023/12/05 08:19:16;;;;;;;44.97;19.08;;;0.30;99.90;;;;;;5043078;28;20456;-72
2023/12/05 08:21:42;;;;;;;37.33;15.52;;;0.20;99.90;;;;;;5050241;28;20594;-71
2023/12/05 08:24:07;;;;;;;51.30;20.23;;;0.20;99.90;;;;;;5025434;28;20032;-72
2023/12/05 08:26:33;;;;;;;44.38;18.75;;;0.30;99.90;;;;;;5027334;28;20045;-72
2023/12/05 08:28:59;;;;;;;48.75;21.60;;;0.30;99.90;;;;;;5041164;28;20080;-72
2023/12/05 08:31:25;;;;;;;44.40;18.55;;;0.30;99.90;;;;;;5041119;28;20041;-72
2023/12/05 08:33:50;;;;;;;45.30;18.75;;;0.30;99.90;;;;;;5042591;28;20469;-72
2023/12/05 08:36:16;;;;;;;53.05;20.08;;;0.30;99.90;;;;;;5040766;28;20056;-71
2023/12/05 08:38:41;;;;;;;51.78;20.95;;;0.30;99.90;;;;;;5048588;28;20052;-70
2023/12/05 08:41:07;;;;;;;48.90;19.08;;;0.30;99.90;;;;;;5032030;28;20453;-69
2023/12/05 08:43:33;;;;;;;46.13;18.38;;;0.30;99.90;;;;;;5030498;28;20038;-72
2023/12/05 08:46:00;;;;;;;46.70;20.42;;;0.30;99.90;;;;;;5031074;28;20033;-71
2023/12/05 08:48:25;;;;;;;45.10;18.40;;;0.30;99.90;;;;;;5029550;28;20037;-72
2023/12/05 08:50:51;;;;;;;47.28;20.52;;;0.30;99.90;;;;;;5028201;28;20045;-72
2023/12/05 08:53:17;;;;;;;48.15;20.70;;;0.30;99.90;;;;;;5013802;28;20053;-73
2023/12/05 08:55:43;;;;;;;48.58;19.60;;;0.30;99.90;;;;;;5036167;28;20128;-73
2023/12/05 08:58:09;;;;;;;49.08;19.52;;;0.30;99.90;;;;;;5033453;28;20068;-72
2023/12/05 09:00:35;;;;;;;48.58;19.10;;;0.30;99.90;;;;;;5033314;28;20061;-72
2023/12/05 09:03:00;;;;;;;50.47;21.85;;;0.30;99.90;;;;;;5047078;28;20101;-72
2023/12/05 09:05:26;;;;;;;42.83;18.13;;;0.30;99.90;;;;;;5038918;28;20080;-72
2023/12/05 09:07:52;;;;;;;44.38;19.23;;;0.30;99.90;;;;;;5031184;28;20044;-72
2023/12/05 09:10:17;;;;;;;48.13;20.58;;;0.30;99.90;;;;;;5032063;28;20036;-72
2023/12/05 09:12:43;;;;;;;47.38;20.13;;;0.30;99.90;;;;;;5049897;28;20430;-72
2023/12/05 09:15:09;;;;;;;47.40;19.75;;;0.30;99.90;;;;;;5045193;28;20487;-72
2023/12/05 09:17:34;;;;;;;46.08;20.50;;;0.30;99.90;;;;;;5054945;28;20045;-73
2023/12/05 09:20:00;;;;;;;50.30;20.85;;;0.40;99.90;;;;;;5016995;28;20102;-73
2023/12/05 09:22:26;;;;;;;45.33;19.27;;;0.30;99.90;;;;;;5039771;28;20469;-74
2023/12/05 09:24:51;;;;;;;49.38;20.33;;;0.30;99.90;;;;;;5040466;28;20045;-73
2023/12/05 09:27:17;;;;;;;45.85;19.17;;;0.40;99.90;;;;;;5033614;28;20116;-73
2023/12/05 09:29:43;;;;;;;44.72;18.67;;;0.40;99.90;;;;;;5033558;28;20045;-73
2023/12/05 09:32:08;;;;;;;46.72;20.10;;;0.40;99.90;;;;;;5022015;28;20739;-73
2023/12/05 09:34:34;;;;;;;42.17;18.70;;;0.30;99.90;;;;;;5022386;28;20044;-73
2023/12/05 09:36:59;;;;;;;43.80;18.05;;;0.30;99.90;;;;;;5038290;28;20393;-73
2023/12/05 09:39:26;;;;;;;47.70;20.33;;;0.40;99.90;;;;;;5042512;28;20072;-74
2023/12/05 09:41:54;;;;;;;46.30;20.23;;;0.40;99.90;;;;;;5036986;28;20138;-74
2023/12/05 09:44:24;;;;;;;46.45;18.95;;;0.40;99.90;;;;;;5033223;28;20029;-75
2023/12/05 09:46:57;;;;;;;46.47;19.55;;;0.40;99.90;;;;;;5022786;28;20048;-72
2023/12/05 09:49:27;;;;;;;46.00;19.75;;;0.40;99.90;;;;;;5043109;28;20041;-74
2023/12/05 09:51:53;;;;;;;42.60;19.15;;;0.40;99.90;;;;;;5036047;28;20067;-72
2023/12/05 09:54:20;;;;;;;46.08;19.38;;;0.40;99.90;;;;;;5032449;28;20144;-74
2023/12/05 09:56:46;;;;;;;44.28;18.85;;;0.40;99.90;;;;;;5037351;28;20072;-72
2023/12/05 09:59:13;;;;;;;48.33;20.15;;;0.40;99.90;;;;;;5035117;28;20045;-73
2023/12/05 10:01:42;;;;;;;46.13;20.55;;;0.50;99.90;;;;;;5030927;28;20041;-73
2023/12/05 10:04:11;;;;;;;42.23;19.63;;;0.50;99.90;;;;;;5036166;28;20026;-72
2023/12/05 10:06:37;;;;;;;47.45;18.52;;;0.50;99.90;;;;;;5017620;28;20295;-72
2023/12/05 10:09:06;;;;;;;43.05;19.58;;;0.50;99.90;;;;;;5042576;28;20037;-74
2023/12/05 10:11:33;;;;;;;45.70;19.95;;;0.50;99.90;;;;;;5037594;28;20143;-73
2023/12/05 10:14:00;;;;;;;45.33;18.83;;;0.50;99.90;;;;;;5033306;28;20076;-71
2023/12/05 10:16:27;;;;;;;45.80;19.85;;;0.50;99.90;;;;;;5019337;28;20053;-72
2023/12/05 10:18:53;;;;;;;51.92;20.13;;;0.50;99.90;;;;;;5031710;28;20530;-73
2023/12/05 10:21:18;;;;;;;44.47;19.35;;;0.50;99.90;;;;;;5032418;28;20134;-72
2023/12/05 10:23:44;;;;;;;43.75;20.52;;;0.50;99.90;;;;;;5022614;28;20036;-72
2023/12/05 10:26:09;;;;;;;46.10;18.88;;;0.50;99.90;;;;;;5041240;28;20053;-72
2023/12/05 10:28:53;;;;;;;48.13;20.63;;;0.50;99.90;;;;;;5014737;28;20037;-73
2023/12/05 10:31:19;;;;;;;45.47;19.95;;;0.50;99.90;;;;;;5041551;28;20056;-72
2023/12/05 10:33:46;;;;;;;45.45;20.95;;;0.60;99.90;;;;;;5020124;28;20033;-73
2023/12/05 10:36:12;;;;;;;44.22;19.08;;;0.60;99.90;;;;;;5031314;28;20183;-72
2023/12/05 10:38:37;;;;;;;42.80;19.05;;;0.50;99.90;;;;;;5040547;28;20045;-72
2023/12/05 10:41:03;;;;;;;47.13;18.60;;;0.60;99.90;;;;;;5027930;28;20124;-72
2023/12/05 10:43:29;;;;;;;43.38;19.13;;;0.60;99.90;;;;;;5047914;28;20037;-74
2023/12/05 10:45:56;;;;;;;43.42;19.80;;;0.60;99.90;;;;;;5034593;28;20033;-73
2023/12/05 10:48:25;;;;;;;40.25;20.55;;;0.50;99.90;;;;;;5058119;28;20120;-73
2023/12/05 10:50:51;;;;;;;44.88;19.30;;;0.60;99.90;;;;;;5012791;28;20046;-73
2023/12/05 10:53:17;;;;;;;46.95;21.17;;;0.60;99.90;;;;;;5037111;28;20717;-73
2023/12/05 10:55:44;;;;;;;47.28;20.02;;;0.60;99.90;;;;;;5045304;28;20037;-74
2023/12/05 10:58:11;;;;;;;46.47;18.38;;;0.60;99.90;;;;;;5031993;28;20047;-74
2023/12/05 11:00:38;;;;;;;42.90;19.38;;;0.60;99.90;;;;;;5030750;28;20045;-74
2023/12/05 11:03:03;;;;;;;45.80;20.27;;;0.60;99.90;;;;;;5042492;28;20044;-74
2023/12/05 11:05:30;;;;;;;43.05;19.77;;;0.60;99.90;;;;;;5038945;28;20372;-75
2023/12/05 11:07:57;;;;;;;40.33;19.55;;;0.60;99.90;;;;;;5044240;28;20445;-75
2023/12/05 11:10:24;;;;;;;46.38;20.95;;;0.60;99.90;;;;;;5041432;28;20457;-76
2023/12/05 11:12:50;;;;;;;43.05;19.15;;;0.60;99.90;;;;;;5040258;28;20353;-77
2023/12/05 11:15:20;;;;;;;48.53;20.75;;;0.60;99.90;;;;;;5045941;28;20085;-77
2023/12/05 11:17:53;;;;;;;43.25;19.67;;;0.60;99.90;;;;;;5046997;28;20099;-77
2023/12/05 11:20:46;;;;;;;45.65;20.02;;;0.60;99.90;;;;;;5029002;28;20033;-77
2023/12/05 11:23:20;;;;;;;42.35;20.15;;;0.70;99.90;;;;;;5036660;28;20103;-76
2023/12/05 11:26:22;;;;;;;49.17;21.02;;;0.70;99.90;;;;;;5042213;28;20049;-76
2023/12/05 11:28:59;;;;;;;43.78;19.55;;;0.70;99.90;;;;;;5043342;28;20072;-76
2023/12/05 11:31:36;;;;;;;45.95;20.40;;;0.70;99.90;;;;;;5038748;28;20545;-76
2023/12/05 11:34:40;;;;;;;45.65;20.48;;;0.70;99.90;;;;;;5023631;28;20413;-76
2023/12/05 11:37:18;;;;;;;46.28;19.98;;;0.70;99.90;;;;;;4995121;28;20121;-76
2023/12/05 11:39:44;;;;;;;49.05;21.95;;;0.70;99.90;;;;;;5039423;28;20472;-76
2023/12/05 11:42:11;;;;;;;47.15;21.60;;;0.70;99.90;;;;;;5041393;28;20045;-76
2023/12/05 11:44:39;;;;;;;47.40;20.90;;;0.60;99.90;;;;;;5047623;28;20120;-75
2023/12/05 11:47:24;;;;;;;49.03;20.00;;;0.60;99.90;;;;;;5031670;28;20432;-75
2023/12/05 11:49:55;;;;;;;46.88;20.17;;;0.60;99.90;;;;;;5048492;28;20036;-75
2023/12/05 11:52:25;;;;;;;50.47;22.45;;;0.60;99.90;;;;;;5048127;28;20033;-75
2023/12/05 11:54:53;;;;;;;46.28;19.33;;;0.70;99.90;;;;;;5036373;28;20051;-74
2023/12/05 11:57:21;;;;;;;48.78;21.75;;;0.70;99.90;;;;;;5031135;28;20050;-74
2023/12/05 11:59:51;;;;;;;46.80;21.60;;;0.70;99.90;;;;;;5039549;28;20121;-75
2023/12/05 12:02:41;;;;;;;49.85;21.85;;;0.70;99.90;;;;;;5048477;28;20060;-74
2023/12/05 12:05:11;;;;;;;43.47;19.52;;;0.70;99.90;;;;;;5030878;28;20351;-73
2023/12/05 12:07:58;;;;;;;;;;;0.70;99.90;;;;;;5016212;28;20064;-73
2023/12/05 12:10:25;;;;;;;45.22;21.20;;;0.70;99.90;;;;;;5015756;28;20272;-73
2023/12/05 12:12:52;;;;;;;48.47;21.02;;;0.70;99.90;;;;;;5032624;28;20053;-74
2023/12/05 12:15:19;;;;;;;51.17;20.60;;;0.70;99.90;;;;;;5051274;28;20041;-73
2023/12/05 12:17:45;;;;;;;48.83;21.77;;;0.70;99.90;;;;;;5037823;28;20102;-73
2023/12/05 12:20:15;;;;;;;43.22;19.95;;;0.70;99.90;;;;;;5030399;28;20458;-73
2023/12/05 12:22:43;;;;;;;50.03;21.67;;;0.70;99.90;;;;;;5036441;28;20103;-73
2023/12/05 12:25:11;;;;;;;44.88;21.30;;;0.70;99.90;;;;;;5042725;28;20060;-73
2023/12/05 12:27:41;;;;;;;49.75;21.75;;;0.70;99.90;;;;;;5023762;28;20056;-74
2023/12/05 12:30:08;;;;;;;51.83;21.23;;;0.70;99.90;;;;;;5045247;28;20122;-73
2023/12/05 12:32:35;;;;;;;48.60;20.92;;;0.70;99.90;;;;;;5037401;28;20061;-72
2023/12/05 12:35:01;;;;;;;44.85;21.05;;;0.70;99.90;;;;;;5022170;28;20059;-73
2023/12/05 12:37:28;;;;;;;49.60;20.83;;;0.70;99.90;;;;;;5034106;28;20122;-73